sensor_id;sensor_type;location;lat;lon;timestamp;pressure;altitude;pressure_sealevel;temperature;humidity
48796;BME280;34607;48.520;-1.330;2023-07-31T06:40:14;99900.09;;;17.29;100.00
48796;BME280;34607;48.520;-1.330;2023-07-31T06:42:42;99910.28;;;17.44;100.00
48796;BME280;34607;48.520;-1.330;2023-07-31T06:45:09;99904.97;;;17.49;100.00
48796;BME280;34607;48.520;-1.330;2023-07-31T06:47:37;99902.28;;;17.52;100.00
48796;BME280;34607;48.520;-1.330;2023-07-31T06:50:04;99909.19;;;17.54;100.00
48796;BME280;34607;48.520;-1.330;2023-07-31T06:52:31;99908.41;;;17.51;100.00
48796;BME280;34607;48.520;-1.330;2023-07-31T06:55:02;99907.59;;;17.47;100.00
48796;BME280;34607;48.520;-1.330;2023-07-31T06:57:31;99897.97;;;17.49;100.00
48796;BME280;34607;48.520;-1.330;2023-07-31T06:59:58;99902.28;;;17.52;100.00
48796;BME280;34607;48.520;-1.330;2023-07-31T07:02:25;99909.34;;;17.48;100.00
48796;BME280;34607;48.520;-1.330;2023-07-31T07:04:52;99917.16;;;17.51;100.00
48796;BME280;34607;48.520;-1.330;2023-07-31T07:07:19;99909.34;;;17.48;100.00
48796;BME280;34607;48.520;-1.330;2023-07-31T07:09:46;99909.28;;;17.51;100.00
48796;BME280;34607;48.520;-1.330;2023-07-31T07:12:13;99906.56;;;17.56;100.00
48796;BME280;34607;48.520;-1.330;2023-07-31T07:14:42;99906.44;;;17.62;100.00
48796;BME280;34607;48.520;-1.330;2023-07-31T07:17:09;99908.28;;;17.57;100.00
48796;BME280;34607;48.520;-1.330;2023-07-31T07:19:36;99895.25;;;17.54;100.00
48796;BME280;34607;48.520;-1.330;2023-07-31T07:22:03;99886.44;;;17.58;100.00
48796;BME280;34607;48.520;-1.330;2023-07-31T07:24:30;99903.03;;;17.58;100.00
48796;BME280;34607;48.520;-1.330;2023-07-31T07:26:57;99893.34;;;17.64;100.00
48796;BME280;34607;48.520;-1.330;2023-07-31T07:29:24;99904.63;;;17.66;100.00
48796;BME280;34607;48.520;-1.330;2023-07-31T07:31:53;99908.03;;;17.71;100.00
48796;BME280;34607;48.520;-1.330;2023-07-31T07:34:22;99910.72;;;17.66;100.00
48796;BME280;34607;48.520;-1.330;2023-07-31T07:36:49;99910.66;;;17.69;100.00
48796;BME280;34607;48.520;-1.330;2023-07-31T07:39:16;99907.94;;;17.75;100.00
48796;BME280;34607;48.520;-1.330;2023-07-31T07:41:43;99899.97;;;17.80;100.00
48796;BME280;34607;48.520;-1.330;2023-07-31T07:44:10;99900.72;;;17.85;100.00
48796;BME280;34607;48.520;-1.330;2023-07-31T07:46:37;99894.66;;;17.86;100.00
48796;BME280;34607;48.520;-1.330;2023-07-31T07:49:06;99884.91;;;17.93;100.00
48796;BME280;34607;48.520;-1.330;2023-07-31T07:51:33;99881.22;;;18.02;100.00
48796;BME280;34607;48.520;-1.330;2023-07-31T07:54:00;99886.50;;;18.00;100.00
48796;BME280;34607;48.520;-1.330;2023-07-31T07:56:27;99878.75;;;17.94;100.00
48796;BME280;34607;48.520;-1.330;2023-07-31T07:58:55;99880.38;;;18.01;100.00
48796;BME280;34607;48.520;-1.330;2023-07-31T08:01:22;99880.41;;;18.00;100.00
48796;BME280;34607;48.520;-1.330;2023-07-31T08:03:49;99881.16;;;18.05;100.00
48796;BME280;34607;48.520;-1.330;2023-07-31T08:06:18;99878.34;;;18.12;100.00
48796;BME280;34607;48.520;-1.330;2023-07-31T08:08:45;99876.69;;;18.10;100.00
48796;BME280;34607;48.520;-1.330;2023-07-31T08:11:12;99869.66;;;18.10;100.00
48796;BME280;34607;48.520;-1.330;2023-07-31T08:13:39;99874.81;;;18.15;100.00
48796;BME280;34607;48.520;-1.330;2023-07-31T08:16:06;99863.38;;;18.18;100.00
48796;BME280;34607;48.520;-1.330;2023-07-31T08:18:33;99861.59;;;18.20;100.00
48796;BME280;34607;48.520;-1.330;2023-07-31T08:21:01;99855.41;;;18.24;100.00
48796;BME280;34607;48.520;-1.330;2023-07-31T08:23:30;99852.78;;;18.24;100.00
48796;BME280;34607;48.520;-1.330;2023-07-31T08:25:57;99854.59;;;18.20;100.00
48796;BME280;34607;48.520;-1.330;2023-07-31T08:28:24;99841.38;;;18.25;100.00
48796;BME280;34607;48.520;-1.330;2023-07-31T08:30:51;99835.19;;;18.29;100.00
48796;BME280;34607;48.520;-1.330;2023-07-31T08:33:18;99825.66;;;18.25;100.00
48796;BME280;34607;48.520;-1.330;2023-07-31T08:35:45;99829.97;;;18.27;100.00
48796;BME280;34607;48.520;-1.330;2023-07-31T08:38:12;99827.38;;;18.26;100.00
48796;BME280;34607;48.520;-1.330;2023-07-31T08:40:40;99840.41;;;18.30;100.00
48796;BME280;34607;48.520;-1.330;2023-07-31T08:43:09;99832.47;;;18.33;100.00
48796;BME280;34607;48.520;-1.330;2023-07-31T08:45:36;99837.00;;;18.27;100.00
48796;BME280;34607;48.520;-1.330;2023-07-31T08:48:04;99837.63;;;18.35;100.00
48796;BME280;34607;48.520;-1.330;2023-07-31T08:50:32;99835.22;;;18.27;100.00
48796;BME280;34607;48.520;-1.330;2023-07-31T08:53:00;99839.44;;;18.33;100.00
48796;BME280;34607;48.520;-1.330;2023-07-31T08:55:28;99834.19;;;18.33;100.00
48796;BME280;34607;48.520;-1.330;2023-07-31T08:57:57;99828.88;;;18.36;100.00
48796;BME280;34607;48.520;-1.330;2023-07-31T09:00:25;99820.13;;;18.37;100.00
48796;BME280;34607;48.520;-1.330;2023-07-31T09:02:57;99833.13;;;18.42;100.00
48796;BME280;34607;48.520;-1.330;2023-07-31T09:05:29;99834.16;;;18.34;100.00
48796;BME280;34607;48.520;-1.330;2023-07-31T09:07:57;99834.19;;;18.33;100.00
48796;BME280;34607;48.520;-1.330;2023-07-31T09:10:24;99840.31;;;18.33;100.00
48796;BME280;34607;48.520;-1.330;2023-07-31T09:12:51;99838.47;;;18.39;100.00
48796;BME280;34607;48.520;-1.330;2023-07-31T09:15:20;99844.38;;;18.45;100.00
48796;BME280;34607;48.520;-1.330;2023-07-31T09:17:50;99850.53;;;18.44;100.00
48796;BME280;34607;48.520;-1.330;2023-07-31T09:20:25;99846.06;;;18.49;100.00
48796;BME280;34607;48.520;-1.330;2023-07-31T09:22:52;99828.44;;;18.55;100.00
48796;BME280;34607;48.520;-1.330;2023-07-31T09:25:20;99824.75;;;18.62;100.00
48796;BME280;34607;48.520;-1.330;2023-07-31T09:27:49;99821.81;;;18.74;100.00
48796;BME280;34607;48.520;-1.330;2023-07-31T09:30:16;99812.03;;;18.82;100.00
48796;BME280;34607;48.520;-1.330;2023-07-31T09:32:46;99814.59;;;18.85;100.00
48796;BME280;34607;48.520;-1.330;2023-07-31T09:35:18;99812.63;;;18.94;100.00
48796;BME280;34607;48.520;-1.330;2023-07-31T09:37:49;99809.00;;;18.98;100.00
48796;BME280;34607;48.520;-1.330;2023-07-31T09:40:27;99796.88;;;18.94;100.00
48796;BME280;34607;48.520;-1.330;2023-07-31T09:42:56;99804.56;;;19.00;100.00
48796;BME280;34607;48.520;-1.330;2023-07-31T09:45:24;99799.16;;;19.06;100.00
48796;BME280;34607;48.520;-1.330;2023-07-31T09:47:52;99795.47;;;19.13;100.00
48796;BME280;34607;48.520;-1.330;2023-07-31T09:50:21;99796.13;;;19.21;100.00
48796;BME280;34607;48.520;-1.330;2023-07-31T09:52:48;99797.56;;;19.32;100.00
48796;BME280;34607;48.520;-1.330;2023-07-31T09:55:15;99786.06;;;19.36;100.00
48796;BME280;34607;48.520;-1.330;2023-07-31T09:57:44;99785.13;;;19.38;100.00
48796;BME280;34607;48.520;-1.330;2023-07-31T10:00:14;99771.13;;;19.38;100.00
48796;BME280;34607;48.520;-1.330;2023-07-31T10:02:43;99782.63;;;19.63;100.00
48796;BME280;34607;48.520;-1.330;2023-07-31T10:05:14;99776.13;;;19.77;100.00
48796;BME280;34607;48.520;-1.330;2023-07-31T10:07:50;99776.03;;;19.80;100.00
48796;BME280;34607;48.520;-1.330;2023-07-31T10:10:20;99764.16;;;19.67;100.00
48796;BME280;34607;48.520;-1.330;2023-07-31T10:12:48;99777.38;;;19.63;100.00
48796;BME280;34607;48.520;-1.330;2023-07-31T10:15:16;99772.31;;;19.57;100.00
48796;BME280;34607;48.520;-1.330;2023-07-31T10:17:44;99778.53;;;19.53;100.00
48796;BME280;34607;48.520;-1.330;2023-07-31T10:20:14;99778.53;;;19.53;100.00
48796;BME280;34607;48.520;-1.330;2023-07-31T10:22:42;99776.94;;;19.49;100.00
48796;BME280;34607;48.520;-1.330;2023-07-31T10:25:09;99772.00;;;19.38;100.00
48796;BME280;34607;48.520;-1.330;2023-07-31T10:27:38;99781.09;;;19.26;100.00
48796;BME280;34607;48.520;-1.330;2023-07-31T10:30:08;99771.53;;;19.24;100.00
48796;BME280;34607;48.520;-1.330;2023-07-31T10:32:38;99760.44;;;19.14;100.00
48796;BME280;34607;48.520;-1.330;2023-07-31T10:35:07;99761.22;;;19.18;100.00
48796;BME280;34607;48.520;-1.330;2023-07-31T10:37:38;99762.06;;;19.18;100.00
48796;BME280;34607;48.520;-1.330;2023-07-31T10:40:10;99746.28;;;19.20;100.00
48796;BME280;34607;48.520;-1.330;2023-07-31T10:42:38;99735.06;;;19.15;100.00
48796;BME280;34607;48.520;-1.330;2023-07-31T10:45:13;99737.28;;;19.28;100.00
48796;BME280;34607;48.520;-1.330;2023-07-31T10:47:43;99733.69;;;19.31;100.00
48796;BME280;34607;48.520;-1.330;2023-07-31T10:50:16;99736.47;;;19.26;100.00
48796;BME280;34607;48.520;-1.330;2023-07-31T10:52:48;99736.19;;;19.36;100.00
48796;BME280;34607;48.520;-1.330;2023-07-31T10:55:26;99736.44;;;19.56;100.00
48796;BME280;34607;48.520;-1.330;2023-07-31T10:57:54;99720.72;;;19.85;100.00
48796;BME280;34607;48.520;-1.330;2023-07-31T11:00:24;99700.56;;;20.12;100.00
48796;BME280;34607;48.520;-1.330;2023-07-31T11:03:04;99728.66;;;20.36;100.00
48796;BME280;34607;48.520;-1.330;2023-07-31T11:05:46;99728.31;;;20.46;100.00
48796;BME280;34607;48.520;-1.330;2023-07-31T11:08:17;99730.06;;;20.47;100.00
48796;BME280;34607;48.520;-1.330;2023-07-31T11:10:46;99716.06;;;20.46;100.00
48796;BME280;34607;48.520;-1.330;2023-07-31T11:13:13;99733.72;;;20.43;100.00
48796;BME280;34607;48.520;-1.330;2023-07-31T11:15:41;99736.78;;;20.29;100.00
48796;BME280;34607;48.520;-1.330;2023-07-31T11:18:08;99730.56;;;20.31;100.00
48796;BME280;34607;48.520;-1.330;2023-07-31T11:20:38;99725.28;;;20.33;100.00
48796;BME280;34607;48.520;-1.330;2023-07-31T11:23:09;99712.31;;;20.27;100.00
48796;BME280;34607;48.520;-1.330;2023-07-31T11:25:38;99710.28;;;20.08;100.00
48796;BME280;34607;48.520;-1.330;2023-07-31T11:28:10;99701.94;;;19.97;100.00
48796;BME280;34607;48.520;-1.330;2023-07-31T11:30:37;99698.38;;;19.98;100.00
48796;BME280;34607;48.520;-1.330;2023-07-31T11:33:06;99723.53;;;20.07;100.00
48796;BME280;34607;48.520;-1.330;2023-07-31T11:35:35;99700.91;;;20.01;100.00
48796;BME280;34607;48.520;-1.330;2023-07-31T11:38:02;99710.09;;;20.14;100.00
48796;BME280;34607;48.520;-1.330;2023-07-31T11:40:29;99717.34;;;20.08;100.00
48796;BME280;34607;48.520;-1.330;2023-07-31T11:42:58;99720.22;;;20.00;100.00
48796;BME280;34607;48.520;-1.330;2023-07-31T11:45:30;99723.94;;;19.93;100.00
48796;BME280;34607;48.520;-1.330;2023-07-31T11:47:58;99718.09;;;19.85;100.00
48796;BME280;34607;48.520;-1.330;2023-07-31T11:50:26;99713.56;;;19.90;100.00
48796;BME280;34607;48.520;-1.330;2023-07-31T11:52:56;99716.22;;;19.88;100.00
48796;BME280;34607;48.520;-1.330;2023-07-31T11:55:24;99714.25;;;19.95;100.00
48796;BME280;34607;48.520;-1.330;2023-07-31T11:57:53;99707.22;;;19.95;100.00
48796;BME280;34607;48.520;-1.330;2023-07-31T12:00:22;99704.78;;;19.89;100.00
48796;BME280;34607;48.520;-1.330;2023-07-31T12:02:50;99705.50;;;19.94;100.00
48796;BME280;34607;48.520;-1.330;2023-07-31T12:05:18;99694.13;;;19.94;100.00
48796;BME280;34607;48.520;-1.330;2023-07-31T12:07:46;99693.94;;;20.00;100.00
48796;BME280;34607;48.520;-1.330;2023-07-31T12:10:25;99690.47;;;19.98;100.00
48796;BME280;34607;48.520;-1.330;2023-07-31T12:13:03;99670.06;;;20.06;100.00
48796;BME280;34607;48.520;-1.330;2023-07-31T12:15:37;99645.38;;;20.12;100.00
48796;BME280;34607;48.520;-1.330;2023-07-31T12:18:04;99663.78;;;20.12;100.00
48796;BME280;34607;48.520;-1.330;2023-07-31T12:20:32;99652.44;;;20.35;100.00
48796;BME280;34607;48.520;-1.330;2023-07-31T12:22:59;99650.72;;;20.59;100.00
48796;BME280;34607;48.520;-1.330;2023-07-31T12:25:30;99648.19;;;20.81;100.00
48796;BME280;34607;48.520;-1.330;2023-07-31T12:27:58;99645.56;;;20.81;100.00
48796;BME280;34607;48.520;-1.330;2023-07-31T12:30:32;99637.13;;;20.71;100.00
48796;BME280;34607;48.520;-1.330;2023-07-31T12:33:04;99643.06;;;20.76;100.00
48796;BME280;34607;48.520;-1.330;2023-07-31T12:35:40;99643.75;;;20.82;100.00
48796;BME280;34607;48.520;-1.330;2023-07-31T12:38:08;99643.44;;;20.67;100.00
48796;BME280;34607;48.520;-1.330;2023-07-31T12:40:37;99627.97;;;20.58;100.00
48796;BME280;34607;48.520;-1.330;2023-07-31T12:43:04;99617.97;;;20.68;100.00
48796;BME280;34607;48.520;-1.330;2023-07-31T12:45:32;99618.44;;;20.79;100.00
48796;BME280;34607;48.520;-1.330;2023-07-31T12:47:59;99580.47;;;20.63;100.00
48796;BME280;34607;48.520;-1.330;2023-07-31T12:50:28;99602.75;;;20.76;100.00
48796;BME280;34607;48.520;-1.330;2023-07-31T12:52:55;99611.56;;;20.75;100.00
48796;BME280;34607;48.520;-1.330;2023-07-31T12:55:22;99594.81;;;20.77;100.00
48796;BME280;34607;48.520;-1.330;2023-07-31T12:57:49;99599.19;;;21.01;100.00
48796;BME280;34607;48.520;-1.330;2023-07-31T13:00:17;99601.69;;;21.04;100.00
48796;BME280;34607;48.520;-1.330;2023-07-31T13:02:44;99589.66;;;20.98;100.00
48796;BME280;34607;48.520;-1.330;2023-07-31T13:05:11;99587.91;;;20.97;100.00
48796;BME280;34607;48.520;-1.330;2023-07-31T13:07:40;99596.50;;;21.02;100.00
48796;BME280;34607;48.520;-1.330;2023-07-31T13:10:08;99586.91;;;21.01;100.00
48796;BME280;34607;48.520;-1.330;2023-07-31T13:12:35;99594.44;;;20.87;100.00
48796;BME280;34607;48.520;-1.330;2023-07-31T13:15:02;99585.75;;;20.85;100.00
48796;BME280;34607;48.520;-1.330;2023-07-31T13:17:29;99588.44;;;20.83;100.00
48796;BME280;34607;48.520;-1.330;2023-07-31T13:19:56;99579.09;;;20.76;100.00
48796;BME280;34607;48.520;-1.330;2023-07-31T13:22:24;99572.09;;;20.75;100.00
48796;BME280;34607;48.520;-1.330;2023-07-31T13:24:52;99579.13;;;20.74;100.00
48796;BME280;34607;48.520;-1.330;2023-07-31T13:27:19;99575.59;;;20.75;100.00
48796;BME280;34607;48.520;-1.330;2023-07-31T13:29:47;99584.75;;;20.65;100.00
48796;BME280;34607;48.520;-1.330;2023-07-31T13:32:15;99577.50;;;20.47;100.00
48796;BME280;34607;48.520;-1.330;2023-07-31T13:34:42;99587.25;;;20.45;100.00
48796;BME280;34607;48.520;-1.330;2023-07-31T13:37:10;99587.94;;;20.25;100.00
48796;BME280;34607;48.520;-1.330;2023-07-31T13:39:37;99589.03;;;20.19;100.00
48796;BME280;34607;48.520;-1.330;2023-07-31T13:42:06;99579.84;;;20.06;100.00
48796;BME280;34607;48.520;-1.330;2023-07-31T13:44:34;99578.13;;;20.05;100.00
48796;BME280;34607;48.520;-1.330;2023-07-31T13:47:01;99597.28;;;20.08;100.00
48796;BME280;34607;48.520;-1.330;2023-07-31T13:49:29;99573.59;;;19.85;100.00
48796;BME280;34607;48.520;-1.330;2023-07-31T13:51:57;99553.63;;;19.79;100.00
48796;BME280;34607;48.520;-1.330;2023-07-31T13:54:24;99537.41;;;19.66;100.00
48796;BME280;34607;48.520;-1.330;2023-07-31T13:56:51;99540.72;;;19.71;100.00
48796;BME280;34607;48.520;-1.330;2023-07-31T13:59:20;99559.31;;;19.92;100.00
48796;BME280;34607;48.520;-1.330;2023-07-31T14:01:47;99569.38;;;19.79;100.00
48796;BME280;34607;48.520;-1.330;2023-07-31T14:04:14;99567.84;;;19.72;100.00
48796;BME280;34607;48.520;-1.330;2023-07-31T14:06:43;99567.25;;;19.63;100.00
48796;BME280;34607;48.520;-1.330;2023-07-31T14:09:10;99566.41;;;19.63;100.00
48796;BME280;34607;48.520;-1.330;2023-07-31T14:11:37;99566.25;;;19.68;100.00
48796;BME280;34607;48.520;-1.330;2023-07-31T14:14:04;99554.81;;;19.69;100.00
48796;BME280;34607;48.520;-1.330;2023-07-31T14:16:33;99553.78;;;19.74;100.00
48796;BME280;34607;48.520;-1.330;2023-07-31T14:19:00;99572.06;;;19.77;100.00
48796;BME280;34607;48.520;-1.330;2023-07-31T14:21:26;99562.97;;;19.61;100.00
48796;BME280;34607;48.520;-1.330;2023-07-31T14:23:54;99543.06;;;19.54;100.00
48796;BME280;34607;48.520;-1.330;2023-07-31T14:26:21;99548.56;;;19.46;100.00
48796;BME280;34607;48.520;-1.330;2023-07-31T14:28:48;99535.75;;;19.37;100.00
48796;BME280;34607;48.520;-1.330;2023-07-31T14:31:15;99535.81;;;19.35;100.00
48796;BME280;34607;48.520;-1.330;2023-07-31T14:33:43;99541.06;;;19.35;100.00
48796;BME280;34607;48.520;-1.330;2023-07-31T14:36:10;99528.16;;;19.27;100.00
48796;BME280;34607;48.520;-1.330;2023-07-31T14:38:37;99539.22;;;19.37;100.00
48796;BME280;34607;48.520;-1.330;2023-07-31T14:41:04;99530.50;;;19.37;100.00
48796;BME280;34607;48.520;-1.330;2023-07-31T14:43:31;99539.19;;;19.39;100.00
48796;BME280;34607;48.520;-1.330;2023-07-31T14:45:58;99535.84;;;19.34;100.00
48796;BME280;34607;48.520;-1.330;2023-07-31T14:48:25;99534.81;;;19.38;100.00
48796;BME280;34607;48.520;-1.330;2023-07-31T14:50:56;99526.94;;;19.38;100.00
48796;BME280;34607;48.520;-1.330;2023-07-31T14:53:23;99517.16;;;19.43;100.00
48796;BME280;34607;48.520;-1.330;2023-07-31T14:55:50;99516.50;;;19.36;100.00
48796;BME280;34607;48.520;-1.330;2023-07-31T14:58:17;99523.53;;;19.36;100.00
48796;BME280;34607;48.520;-1.330;2023-07-31T15:00:44;99517.16;;;19.43;100.00
48796;BME280;34607;48.520;-1.330;2023-07-31T15:03:11;99518.13;;;19.40;100.00
48796;BME280;34607;48.520;-1.330;2023-07-31T15:05:38;99512.97;;;19.37;100.00
48796;BME280;34607;48.520;-1.330;2023-07-31T15:08:07;99511.31;;;19.35;100.00
48796;BME280;34607;48.520;-1.330;2023-07-31T15:10:34;99516.25;;;19.44;100.00
48796;BME280;34607;48.520;-1.330;2023-07-31T15:13:01;99518.28;;;19.36;100.00
48796;BME280;34607;48.520;-1.330;2023-07-31T15:15:28;99513.06;;;19.34;100.00
48796;BME280;34607;48.520;-1.330;2023-07-31T15:17:56;99508.00;;;19.30;100.00
48796;BME280;34607;48.520;-1.330;2023-07-31T15:20:23;99499.94;;;19.34;100.00
48796;BME280;34607;48.520;-1.330;2023-07-31T15:22:50;99488.31;;;19.41;100.00
48796;BME280;34607;48.520;-1.330;2023-07-31T15:25:19;99475.47;;;19.34;100.00
48796;BME280;34607;48.520;-1.330;2023-07-31T15:27:46;99471.88;;;19.36;100.00
48796;BME280;34607;48.520;-1.330;2023-07-31T15:30:13;99475.19;;;19.41;100.00
48796;BME280;34607;48.520;-1.330;2023-07-31T15:32:40;99466.47;;;19.41;100.00
48796;BME280;34607;48.520;-1.330;2023-07-31T15:35:07;99454.97;;;19.45;100.00
48796;BME280;34607;48.520;-1.330;2023-07-31T15:37:34;99461.13;;;19.44;100.00
48796;BME280;34607;48.520;-1.330;2023-07-31T15:40:01;99455.81;;;19.45;100.00
48796;BME280;34607;48.520;-1.330;2023-07-31T15:42:30;99444.53;;;19.43;100.00
48796;BME280;34607;48.520;-1.330;2023-07-31T15:44:59;99447.19;;;19.42;100.00
48796;BME280;34607;48.520;-1.330;2023-07-31T15:47:26;99448.31;;;19.35;100.00
48796;BME280;34607;48.520;-1.330;2023-07-31T15:49:53;99438.81;;;19.31;100.00
48796;BME280;34607;48.520;-1.330;2023-07-31T15:52:20;99437.81;;;19.35;100.00
48796;BME280;34607;48.520;-1.330;2023-07-31T15:54:47;99432.19;;;19.45;100.00
48796;BME280;34607;48.520;-1.330;2023-07-31T15:57:14;99408.06;;;19.59;100.00
48796;BME280;34607;48.520;-1.330;2023-07-31T15:59:42;99419.31;;;19.63;100.00
48796;BME280;34607;48.520;-1.330;2023-07-31T16:02:10;99400.84;;;19.41;100.00
48796;BME280;34607;48.520;-1.330;2023-07-31T16:04:37;99419.91;;;19.46;100.00
48796;BME280;34607;48.520;-1.330;2023-07-31T16:07:05;99417.44;;;19.41;100.00
48796;BME280;34607;48.520;-1.330;2023-07-31T16:09:32;99417.53;;;19.40;100.00
48796;BME280;34607;48.520;-1.330;2023-07-31T16:11:59;99404.41;;;19.40;100.00
48796;BME280;34607;48.520;-1.330;2023-07-31T16:14:26;99397.38;;;19.40;100.00
48796;BME280;34607;48.520;-1.330;2023-07-31T16:16:55;99410.50;;;19.40;100.00
48796;BME280;34607;48.520;-1.330;2023-07-31T16:19:22;99404.78;;;19.27;100.00
48796;BME280;34607;48.520;-1.330;2023-07-31T16:21:49;99412.53;;;19.32;100.00
48796;BME280;34607;48.520;-1.330;2023-07-31T16:24:16;99382.84;;;19.30;100.00
48796;BME280;34607;48.520;-1.330;2023-07-31T16:26:43;99390.44;;;19.38;100.00
48796;BME280;34607;48.520;-1.330;2023-07-31T16:29:10;99389.50;;;19.40;100.00
48796;BME280;34607;48.520;-1.330;2023-07-31T16:31:37;99381.88;;;19.33;100.00
48796;BME280;34607;48.520;-1.330;2023-07-31T16:34:05;99388.84;;;19.34;100.00
48796;BME280;34607;48.520;-1.330;2023-07-31T16:36:32;99382.47;;;19.41;100.00
48796;BME280;34607;48.520;-1.330;2023-07-31T16:38:59;99368.44;;;19.42;100.00
48796;BME280;34607;48.520;-1.330;2023-07-31T16:41:27;99370.31;;;19.38;100.00
48796;BME280;34607;48.520;-1.330;2023-07-31T16:43:54;99373.84;;;19.37;100.00
48796;BME280;34607;48.520;-1.330;2023-07-31T16:46:21;99364.41;;;19.32;100.00
48796;BME280;34607;48.520;-1.330;2023-07-31T16:48:48;99368.75;;;19.33;100.00
48796;BME280;34607;48.520;-1.330;2023-07-31T16:51:17;99368.75;;;19.33;100.00
48796;BME280;34607;48.520;-1.330;2023-07-31T16:53:45;99363.38;;;19.36;100.00
48796;BME280;34607;48.520;-1.330;2023-07-31T16:56:14;99359.91;;;19.35;100.00
48796;BME280;34607;48.520;-1.330;2023-07-31T16:58:42;99350.91;;;19.42;100.00
48796;BME280;34607;48.520;-1.330;2023-07-31T17:01:09;99360.75;;;19.36;100.00
48796;BME280;34607;48.520;-1.330;2023-07-31T17:03:36;99355.63;;;19.33;100.00
48796;BME280;34607;48.520;-1.330;2023-07-31T17:06:03;99346.09;;;19.30;100.00
48796;BME280;34607;48.520;-1.330;2023-07-31T17:08:31;99344.38;;;19.29;100.00
48796;BME280;34607;48.520;-1.330;2023-07-31T17:10:58;99346.03;;;19.32;100.00
48796;BME280;34607;48.520;-1.330;2023-07-31T17:13:25;99357.69;;;19.24;100.00
48796;BME280;34607;48.520;-1.330;2023-07-31T17:15:52;99334.22;;;19.20;100.00
48796;BME280;34607;48.520;-1.330;2023-07-31T17:18:19;99354.97;;;19.26;100.00
48796;BME280;34607;48.520;-1.330;2023-07-31T17:20:46;99351.50;;;19.25;100.00
48796;BME280;34607;48.520;-1.330;2023-07-31T17:23:13;99347.19;;;19.24;100.00
48796;BME280;34607;48.520;-1.330;2023-07-31T17:25:42;99349.03;;;19.21;100.00
48796;BME280;34607;48.520;-1.330;2023-07-31T17:28:09;99326.41;;;19.18;100.00
48796;BME280;34607;48.520;-1.330;2023-07-31T17:30:36;99332.28;;;19.25;100.00
48796;BME280;34607;48.520;-1.330;2023-07-31T17:33:03;99334.75;;;19.30;100.00
48796;BME280;34607;48.520;-1.330;2023-07-31T17:35:30;99321.50;;;19.33;100.00
48796;BME280;34607;48.520;-1.330;2023-07-31T17:37:57;99310.94;;;19.34;100.00
48796;BME280;34607;48.520;-1.330;2023-07-31T17:40:25;99303.13;;;19.33;100.00
48796;BME280;34607;48.520;-1.330;2023-07-31T17:42:53;99269.50;;;19.19;100.00
48796;BME280;34607;48.520;-1.330;2023-07-31T17:45:20;99296.97;;;19.34;100.00
48796;BME280;34607;48.520;-1.330;2023-07-31T17:47:47;99306.44;;;19.38;100.00
48796;BME280;34607;48.520;-1.330;2023-07-31T17:50:14;99296.66;;;19.41;100.00
48796;BME280;34607;48.520;-1.330;2023-07-31T17:52:41;99306.31;;;19.41;100.00
48796;BME280;34607;48.520;-1.330;2023-07-31T17:55:08;99300.50;;;19.33;100.00
48796;BME280;34607;48.520;-1.330;2023-07-31T17:57:36;99309.19;;;19.35;100.00
48796;BME280;34607;48.520;-1.330;2023-07-31T18:00:05;99303.34;;;19.26;100.00
48796;BME280;34607;48.520;-1.330;2023-07-31T18:02:33;99299.94;;;19.24;100.00
48796;BME280;34607;48.520;-1.330;2023-07-31T18:05:01;99298.22;;;19.23;100.00
48796;BME280;34607;48.520;-1.330;2023-07-31T18:07:28;99294.56;;;19.27;100.00
48796;BME280;34607;48.520;-1.330;2023-07-31T18:09:55;99298.94;;;19.27;100.00
48796;BME280;34607;48.520;-1.330;2023-07-31T18:12:22;99305.28;;;19.21;100.00
48796;BME280;34607;48.520;-1.330;2023-07-31T18:14:49;99306.25;;;19.19;100.00
48796;BME280;34607;48.520;-1.330;2023-07-31T18:17:17;99293.41;;;19.11;100.00
48796;BME280;34607;48.520;-1.330;2023-07-31T18:19:44;99295.84;;;19.16;100.00
48796;BME280;34607;48.520;-1.330;2023-07-31T18:22:11;99296.53;;;19.21;100.00
48796;BME280;34607;48.520;-1.330;2023-07-31T18:24:39;99293.06;;;19.20;100.00
48796;BME280;34607;48.520;-1.330;2023-07-31T18:27:06;99288.97;;;19.13;100.00
48796;BME280;34607;48.520;-1.330;2023-07-31T18:29:33;99284.59;;;19.12;100.00
48796;BME280;34607;48.520;-1.330;2023-07-31T18:32:03;99306.47;;;19.13;100.00
48796;BME280;34607;48.520;-1.330;2023-07-31T18:34:32;99301.38;;;19.08;100.00
48796;BME280;34607;48.520;-1.330;2023-07-31T18:37:00;99302.28;;;19.07;100.00
48796;BME280;34607;48.520;-1.330;2023-07-31T18:39:29;99304.22;;;19.02;100.00
48796;BME280;34607;48.520;-1.330;2023-07-31T18:41:56;99305.94;;;19.03;100.00
48796;BME280;34607;48.520;-1.330;2023-07-31T18:44:23;99303.28;;;19.04;100.00
48796;BME280;34607;48.520;-1.330;2023-07-31T18:46:50;99305.16;;;19.01;100.00
48796;BME280;34607;48.520;-1.330;2023-07-31T18:49:17;99308.78;;;18.97;100.00
48796;BME280;34607;48.520;-1.330;2023-07-31T18:51:45;99306.28;;;18.94;100.00
48796;BME280;34607;48.520;-1.330;2023-07-31T18:54:13;99309.00;;;18.90;100.00
48796;BME280;34607;48.520;-1.330;2023-07-31T18:56:40;99317.75;;;18.89;100.00
48796;BME280;34607;48.520;-1.330;2023-07-31T18:59:07;99316.06;;;18.88;100.00
48796;BME280;34607;48.520;-1.330;2023-07-31T19:01:34;99311.69;;;18.89;100.00
48796;BME280;34607;48.520;-1.330;2023-07-31T19:04:01;99305.63;;;18.87;100.00
48796;BME280;34607;48.520;-1.330;2023-07-31T19:06:30;99302.97;;;18.88;100.00
48796;BME280;34607;48.520;-1.330;2023-07-31T19:08:58;99298.56;;;18.89;100.00
